Terminal Aerodrome Forecast
Issued by NWS

Home | Current Version | Previous Version | Text Only | Print | Product List | Glossary On
Versions: 1 2 3 4 5 6 7 8 9 10 11 12 13 14 15 16 17 18 19 20
000
FTUS41 KPHI 150535
TAFMIV
TAF
KMIV 150535Z 1506/1606 35005KT P6SM SCT150
     FM151800 VRB03KT 3SM -SN BR OVC025
     FM152300 31004KT P6SM BKN030
     FM160200 28004KT P6SM SCT150=

USA.gov is the U.S. government's official web portal to all federal, state and local government web resources and services.